createdAt,value
2022-12-22T00:00:02.589Z,98386.94
2022-12-22T00:02:58.876Z,98378.81
2022-12-22T00:05:45.734Z,98382.50
2022-12-22T00:08:31.558Z,98372.75
2022-12-22T00:11:19.499Z,98375.41
2022-12-22T00:14:05.720Z,98365.03
2022-12-22T00:16:55.947Z,98367.09
2022-12-22T00:19:42.514Z,98367.09
2022-12-22T00:22:33.868Z,98376.50
2022-12-22T00:25:19.718Z,98367.78
2022-12-22T00:28:06.197Z,98372.88
2022-12-22T00:30:52.654Z,98366.53
2022-12-22T00:33:40.865Z,98369.13
2022-12-22T00:36:31.847Z,98358.53
2022-12-22T00:39:17.997Z,98355.88
2022-12-22T00:42:04.195Z,98353.06
2022-12-22T00:44:50.320Z,98354.25
2022-12-22T00:47:47.154Z,98344.44
2022-12-22T00:50:35.230Z,98350.56
2022-12-22T00:53:23.418Z,98340.75
2022-12-22T00:56:09.695Z,98344.63
2022-12-22T00:58:56.213Z,98345.44
2022-12-22T01:01:42.958Z,98347.47
2022-12-22T01:04:29.467Z,98338.03
2022-12-22T01:07:16.979Z,98325.47
2022-12-22T01:10:09.223Z,98324.19
2022-12-22T01:12:59.116Z,98330.19
2022-12-22T01:15:49.076Z,98322.22
2022-12-22T01:18:35.591Z,98322.69
2022-12-22T01:21:23.076Z,98317.78
2022-12-22T01:24:11.143Z,98306.56
2022-12-22T01:26:57.387Z,98303.56
2022-12-22T01:29:43.538Z,98299.53
2022-12-22T01:32:33.544Z,98290.34
2022-12-22T01:35:19.917Z,98297.25
2022-12-22T01:38:05.806Z,98285.03
2022-12-22T01:40:53.169Z,98279.41
2022-12-22T01:43:43.994Z,98280.78
2022-12-22T01:46:42.707Z,98290.06
2022-12-22T01:49:34.544Z,98278.16
2022-12-22T01:52:22.117Z,98276.75
2022-12-22T01:55:09.400Z,98280.50
2022-12-22T01:57:57.549Z,98275.00
2022-12-22T02:00:43.925Z,98263.69
2022-12-22T02:03:35.561Z,98263.69
2022-12-22T02:06:42.333Z,98260.28
2022-12-22T02:09:51.346Z,98253.94
2022-12-22T02:12:51.037Z,98244.13
2022-12-22T02:15:47.151Z,98242.91
2022-12-22T02:18:41.035Z,98246.97
2022-12-22T02:21:33.863Z,98238.38
2022-12-22T02:24:40.549Z,98233.31
2022-12-22T02:27:30.559Z,98222.44
2022-12-22T02:30:21.908Z,98222.81
2022-12-22T02:33:10.044Z,98218.31
2022-12-22T02:36:07.718Z,98215.28
2022-12-22T02:39:08.438Z,98210.38
2022-12-22T02:42:09.036Z,98200.97
2022-12-22T02:45:12.143Z,98200.56
2022-12-22T02:53:21.173Z,98193.38
2022-12-22T02:56:06.904Z,98198.09
2022-12-22T02:58:53.373Z,98196.19
2022-12-22T03:01:38.903Z,98194.94
2022-12-22T03:04:24.826Z,98175.13
2022-12-22T03:07:11.182Z,98180.28
2022-12-22T03:09:58.800Z,98163.91
2022-12-22T03:12:45.101Z,98156.19
2022-12-22T03:15:31.109Z,98154.16
2022-12-22T03:18:21.624Z,98137.94
2022-12-22T03:21:07.760Z,98143.25
2022-12-22T03:23:55.423Z,98142.81
2022-12-22T03:26:25.925Z,98144.88
2022-12-22T03:28:54.742Z,98142.91
2022-12-22T03:31:23.567Z,98137.78
2022-12-22T03:33:52.383Z,98125.09
2022-12-22T03:36:21.209Z,98131.91
2022-12-22T03:38:49.998Z,98125.81
2022-12-22T03:41:32.597Z,98122.16
2022-12-22T03:44:20.935Z,98124.34
2022-12-22T03:46:49.793Z,98120.91
2022-12-22T03:49:19.642Z,98120.09
2022-12-22T03:51:51.699Z,98116.69
2022-12-22T03:54:22.808Z,98111.75
2022-12-22T03:56:52.968Z,98109.09
2022-12-22T03:59:23.354Z,98106.72
2022-12-22T04:01:55.011Z,98096.94
2022-12-22T04:04:27.715Z,98101.03
2022-12-22T04:06:57.155Z,98109.25
2022-12-22T04:09:27.358Z,98111.25
2022-12-22T04:12:28.271Z,98104.13
2022-12-22T04:14:58.399Z,98106.03
2022-12-22T04:17:27.240Z,98107.75
2022-12-22T04:19:56.002Z,98105.25
2022-12-22T04:22:25.400Z,98102.97
2022-12-22T04:24:54.119Z,98098.66
2022-12-22T04:27:22.863Z,98093.53
2022-12-22T04:29:51.656Z,98091.72
2022-12-22T04:32:21.907Z,98079.47
2022-12-22T04:34:50.757Z,98079.50
2022-12-22T04:37:19.591Z,98075.38
2022-12-22T04:39:48.319Z,98075.38
2022-12-22T04:42:17.171Z,98083.94
2022-12-22T04:44:45.980Z,98073.75
2022-12-22T04:47:14.711Z,98071.50
2022-12-22T04:49:44.843Z,98066.44
2022-12-22T04:52:13.698Z,98061.72
2022-12-22T04:54:42.476Z,98062.94
2022-12-22T04:57:11.341Z,98064.78
2022-12-22T04:59:40.531Z,98053.00
2022-12-22T05:02:09.445Z,98059.53
2022-12-22T05:04:38.422Z,98044.44
2022-12-22T05:07:08.685Z,98047.47
2022-12-22T05:09:37.661Z,98042.41
2022-12-22T05:12:27.519Z,98034.44
2022-12-22T05:14:56.250Z,98029.72
2022-12-22T05:17:25.035Z,98027.94
2022-12-22T05:19:53.778Z,98022.44
2022-12-22T05:22:23.928Z,98017.06
2022-12-22T05:24:52.798Z,98012.72
2022-12-22T05:27:21.835Z,98011.34
2022-12-22T05:29:50.533Z,98003.38
2022-12-22T05:32:19.311Z,98003.09
2022-12-22T05:34:48.386Z,98002.69
2022-12-22T05:37:17.264Z,98001.78
2022-12-22T05:39:47.457Z,97993.38
2022-12-22T05:42:35.838Z,98000.47
2022-12-22T05:45:07.806Z,97993.13
2022-12-22T05:47:38.781Z,97994.81
2022-12-22T05:50:09.939Z,97991.03
2022-12-22T05:52:39.311Z,97990.47
2022-12-22T05:55:12.900Z,97988.16
2022-12-22T05:57:43.211Z,97991.78
2022-12-22T06:00:16.075Z,97984.06
2022-12-22T06:02:46.758Z,97991.34
2022-12-22T06:05:16.987Z,97987.19
2022-12-22T06:07:46.250Z,97974.97
2022-12-22T06:10:17.882Z,97981.91
2022-12-22T06:12:46.728Z,97983.66
2022-12-22T06:15:16.645Z,97979.31
2022-12-22T06:17:45.661Z,97973.78
2022-12-22T06:20:15.584Z,97983.50
2022-12-22T06:22:44.995Z,97978.19
2022-12-22T06:25:18.756Z,97989.41
2022-12-22T06:27:49.209Z,97992.22
2022-12-22T06:30:18.743Z,97984.38
2022-12-22T06:32:47.468Z,97990.94
2022-12-22T06:35:16.687Z,97986.44
2022-12-22T06:37:46.541Z,97990.06
2022-12-22T06:40:17.529Z,97980.25
2022-12-22T06:43:08.463Z,97986.72
2022-12-22T06:45:39.694Z,97990.34
2022-12-22T06:48:10.013Z,97993.56
2022-12-22T06:50:44.246Z,97993.94
2022-12-22T06:53:14.085Z,97993.03
2022-12-22T06:55:45.183Z,97992.81
2022-12-22T06:58:14.061Z,97992.13
2022-12-22T07:00:43.220Z,97981.06
2022-12-22T07:03:12.383Z,97965.50
2022-12-22T07:05:41.274Z,97964.22
2022-12-22T07:08:10.099Z,97961.13
2022-12-22T07:10:56.292Z,97963.78
2022-12-22T07:13:28.959Z,97960.06
2022-12-22T07:16:01.047Z,97952.34
2022-12-22T07:18:33.183Z,97948.97
2022-12-22T07:21:04.139Z,97941.63
2022-12-22T07:23:34.011Z,97936.19
2022-12-22T07:26:03.127Z,97924.28
2022-12-22T07:28:36.471Z,97926.25
2022-12-22T07:31:07.588Z,97931.94
2022-12-22T07:33:36.489Z,97937.56
2022-12-22T07:36:08.763Z,97927.53
2022-12-22T07:38:40.517Z,97929.16
2022-12-22T07:41:25.162Z,97932.63
2022-12-22T07:43:57.331Z,97934.47
2022-12-22T07:46:28.325Z,97928.56
2022-12-22T07:49:20.392Z,97928.94
2022-12-22T07:51:49.577Z,97925.34
2022-12-22T07:54:19.261Z,97926.28
2022-12-22T07:56:48.884Z,97914.16
2022-12-22T07:59:19.808Z,97911.63
2022-12-22T08:01:48.676Z,97918.09
2022-12-22T08:04:18.051Z,97915.09
2022-12-22T08:06:47.010Z,97920.31
2022-12-22T08:09:19.794Z,97916.94
2022-12-22T08:11:50.290Z,97915.34
2022-12-22T08:14:20.988Z,97905.84
2022-12-22T08:16:49.911Z,97902.84
2022-12-22T08:19:18.704Z,97897.50
2022-12-22T08:21:52.879Z,97887.22
2022-12-22T08:24:22.286Z,97887.78
2022-12-22T08:26:58.911Z,97891.63
2022-12-22T08:29:35.734Z,97883.41
2022-12-22T08:32:05.029Z,97875.97
2022-12-22T08:34:37.152Z,97870.78
2022-12-22T08:37:12.342Z,97865.78
2022-12-22T08:39:44.485Z,97860.22
2022-12-22T08:42:28.594Z,97861.59
2022-12-22T08:44:59.850Z,97855.13
2022-12-22T08:48:24.827Z,97858.44
2022-12-22T08:50:53.719Z,97849.75
2022-12-22T08:54:02.751Z,97848.22
2022-12-22T08:56:12.489Z,97846.16
2022-12-22T08:58:41.524Z,97841.13
2022-12-22T09:01:19.311Z,97838.56
2022-12-22T09:03:52.247Z,97834.06
2022-12-22T09:06:27.234Z,97837.16
2022-12-22T09:09:02.904Z,97832.47
2022-12-22T09:11:32.013Z,97836.94
2022-12-22T09:14:04.046Z,97836.53
2022-12-22T09:16:36.618Z,97839.28
2022-12-22T09:19:07.888Z,97832.03
2022-12-22T09:21:37.868Z,97839.13
2022-12-22T09:24:08.561Z,97836.59
2022-12-22T09:27:09.311Z,97837.25
2022-12-22T09:29:38.695Z,97834.66
2022-12-22T09:32:09.296Z,97841.50
2022-12-22T09:34:38.304Z,97831.16
2022-12-22T09:37:07.603Z,97830.50
2022-12-22T09:39:36.726Z,97818.34
2022-12-22T09:42:06.004Z,97817.69
2022-12-22T09:44:40.618Z,97810.31
2022-12-22T09:47:36.102Z,97800.00
2022-12-22T09:50:06.821Z,97802.50
2022-12-22T09:52:47.975Z,97792.69
2022-12-22T09:55:34.633Z,97793.00
2022-12-22T09:58:04.534Z,97788.78
2022-12-22T10:00:40.712Z,97777.66
2022-12-22T10:03:28.899Z,97783.03
2022-12-22T10:06:12.329Z,97778.03
2022-12-22T10:08:42.046Z,97765.06
2022-12-22T10:11:16.171Z,97765.41
2022-12-22T10:13:46.709Z,97761.72
2022-12-22T10:16:22.205Z,97751.28
2022-12-22T10:19:07.629Z,97761.66
2022-12-22T10:21:46.451Z,97758.19
2022-12-22T10:24:28.858Z,97751.50
2022-12-22T10:27:00.670Z,97763.91
2022-12-22T10:29:31.303Z,97751.59
2022-12-22T10:32:03.955Z,97751.06
2022-12-22T10:34:34.356Z,97756.69
2022-12-22T10:37:06.397Z,97752.41
2022-12-22T10:39:38.489Z,97757.50
2022-12-22T10:42:13.783Z,97754.94
2022-12-22T10:44:49.503Z,97755.41
2022-12-22T10:47:24.474Z,97752.19
2022-12-22T10:52:32.289Z,97751.72
2022-12-22T10:55:19.562Z,97747.75
2022-12-22T10:57:48.499Z,97742.75
2022-12-22T11:00:27.941Z,97734.25
2022-12-22T11:02:59.058Z,97742.84
2022-12-22T11:05:30.720Z,97729.47
2022-12-22T11:08:05.542Z,97736.22
2022-12-22T11:10:44.941Z,97727.13
2022-12-22T11:13:35.996Z,97733.31
2022-12-22T11:16:13.215Z,97730.38
2022-12-22T11:19:05.446Z,97719.69
2022-12-22T11:21:46.820Z,97718.81
2022-12-22T11:24:34.826Z,97710.25
2022-12-22T11:27:24.283Z,97704.34
2022-12-22T11:30:06.727Z,97706.50
2022-12-22T11:33:16.038Z,97701.97
2022-12-22T11:35:58.825Z,97695.81
2022-12-22T11:38:47.569Z,97689.91
2022-12-22T11:41:47.860Z,97689.09
2022-12-22T11:44:42.375Z,97688.84
2022-12-22T11:47:29.776Z,97679.44
2022-12-22T11:51:00.180Z,97678.13
2022-12-22T11:54:10.684Z,97670.03
2022-12-22T11:56:44.248Z,97672.69
2022-12-22T11:59:41.533Z,97667.66
2022-12-22T12:03:04.859Z,97662.53
2022-12-22T12:06:19.217Z,97662.31
2022-12-22T12:09:10.443Z,97663.63
2022-12-22T12:11:53.747Z,97660.75
2022-12-22T12:14:32.775Z,97660.53
2022-12-22T12:17:17.014Z,97658.44
2022-12-22T12:20:12.939Z,97657.91
2022-12-22T12:23:03.126Z,97653.94
2022-12-22T12:25:42.640Z,97653.66
2022-12-22T12:28:32.163Z,97652.63
2022-12-22T12:31:02.548Z,97645.16
2022-12-22T12:33:43.789Z,97655.09
2022-12-22T12:36:23.082Z,97646.63
2022-12-22T12:39:07.925Z,97657.63
2022-12-22T12:41:53.232Z,97657.38
2022-12-22T12:44:27.746Z,97657.44
2022-12-22T12:47:22.457Z,97658.00
2022-12-22T12:50:26.654Z,97654.53
2022-12-22T12:53:09.476Z,97665.81
2022-12-22T12:55:59.156Z,97667.41
2022-12-22T12:58:58.151Z,97665.25
2022-12-22T13:02:00.313Z,97655.09
2022-12-22T13:05:03.133Z,97656.19
2022-12-22T13:08:14.493Z,97662.84
2022-12-22T13:12:10.601Z,97656.72
2022-12-22T13:14:58.855Z,97664.19
2022-12-22T13:17:49.061Z,97662.31
2022-12-22T13:20:26.224Z,97678.34
2022-12-22T13:22:58.110Z,97671.34
2022-12-22T13:25:37.814Z,97671.63
2022-12-22T13:28:08.410Z,97672.69
2022-12-22T13:30:39.545Z,97674.84
2022-12-22T13:33:16.983Z,97683.66
2022-12-22T13:35:53.402Z,97680.19
2022-12-22T13:38:32.221Z,97677.75
2022-12-22T13:41:05.353Z,97674.81
2022-12-22T13:43:35.188Z,97682.81
2022-12-22T13:46:06.015Z,97685.22
2022-12-22T13:48:45.047Z,97674.78
2022-12-22T13:51:22.554Z,97679.88
2022-12-22T13:54:08.397Z,97689.47
2022-12-22T13:56:42.522Z,97680.38
2022-12-22T13:59:29.026Z,97688.66
2022-12-22T14:02:15.251Z,97682.22
2022-12-22T14:04:52.073Z,97688.09
2022-12-22T14:07:22.577Z,97692.09
2022-12-22T14:09:56.138Z,97687.03
2022-12-22T14:12:28.294Z,97698.50
2022-12-22T14:15:01.292Z,97690.44
2022-12-22T14:17:37.015Z,97689.69
2022-12-22T14:20:21.066Z,97692.63
2022-12-22T14:22:55.608Z,97694.22
2022-12-22T14:25:31.112Z,97683.75
2022-12-22T14:28:01.465Z,97678.94
2022-12-22T14:30:38.862Z,97682.69
2022-12-22T14:33:30.157Z,97680.06
2022-12-22T14:36:17.676Z,97684.84
2022-12-22T14:38:49.388Z,97696.63
2022-12-22T14:41:51.229Z,97695.78
2022-12-22T14:44:25.286Z,97715.25
2022-12-22T14:47:28.179Z,97698.19
2022-12-22T14:50:07.308Z,97708.38
2022-12-22T14:52:45.148Z,97703.28
2022-12-22T14:55:28.798Z,97714.00
2022-12-22T14:58:02.433Z,97713.72
2022-12-22T15:00:39.370Z,97727.34
2022-12-22T15:03:33.714Z,97732.97
2022-12-22T15:06:34.522Z,97738.31
2022-12-22T15:10:12.618Z,97734.53
2022-12-22T15:12:20.153Z,97750.56
2022-12-22T15:14:50.207Z,97749.78
2022-12-22T15:17:26.525Z,97753.56
2022-12-22T15:19:59.836Z,97756.78
2022-12-22T15:22:31.126Z,97765.28
2022-12-22T15:24:59.927Z,97773.56
2022-12-22T15:27:28.650Z,97781.53
2022-12-22T15:29:57.345Z,97790.84
2022-12-22T15:32:27.202Z,97793.78
2022-12-22T15:34:56.228Z,97799.41
2022-12-22T15:37:25.127Z,97814.03
2022-12-22T15:39:55.325Z,97818.81
2022-12-22T15:42:24.083Z,97827.09
2022-12-22T15:44:52.888Z,97837.44
2022-12-22T15:47:22.296Z,97845.41
2022-12-22T15:49:51.067Z,97848.34
2022-12-22T15:52:19.837Z,97848.03
2022-12-22T15:54:48.794Z,97851.16
2022-12-22T15:57:19.066Z,97853.78
2022-12-22T15:59:47.860Z,97863.88
2022-12-22T16:02:16.811Z,97870.28
2022-12-22T16:04:46.001Z,97868.19
2022-12-22T16:07:15.217Z,97881.75
2022-12-22T16:09:48.759Z,97883.09
2022-12-22T16:12:21.127Z,97899.13
2022-12-22T16:14:58.005Z,97896.69
2022-12-22T16:17:30.049Z,97902.84
2022-12-22T16:20:00.624Z,97904.09
2022-12-22T16:22:35.020Z,97921.97
2022-12-22T16:25:09.051Z,97929.22
2022-12-22T16:27:39.425Z,97923.59
2022-12-22T16:30:16.217Z,97925.69
2022-12-22T16:32:46.000Z,97929.47
2022-12-22T16:35:21.700Z,97935.88
2022-12-22T16:37:51.100Z,97939.09
2022-12-22T16:40:20.917Z,97942.31
2022-12-22T16:45:48.409Z,97952.19
2022-12-22T16:48:23.137Z,97968.41
2022-12-22T16:50:52.237Z,97963.56
2022-12-22T16:53:21.101Z,97979.09
2022-12-22T16:55:49.994Z,97990.91
2022-12-22T16:58:21.281Z,97983.94
2022-12-22T17:00:50.572Z,97991.16
2022-12-22T17:03:26.686Z,97986.22
2022-12-22T17:05:59.756Z,97988.16
2022-12-22T17:08:33.775Z,97992.38
2022-12-22T17:11:10.928Z,97993.00
2022-12-22T17:13:41.801Z,98014.03
2022-12-22T17:16:21.548Z,98013.50
2022-12-22T17:18:51.128Z,98008.38
2022-12-22T17:21:22.834Z,98017.44
2022-12-22T17:23:54.544Z,98016.97
2022-12-22T17:26:26.985Z,98021.50
2022-12-22T17:28:58.646Z,98019.00
2022-12-22T17:31:27.608Z,98025.56
2022-12-22T17:33:56.495Z,98033.63
2022-12-22T17:36:34.691Z,98024.91
2022-12-22T17:39:05.275Z,98028.06
2022-12-22T17:41:34.796Z,98020.91
2022-12-22T17:44:05.522Z,98035.59
2022-12-22T17:46:35.139Z,98038.50
2022-12-22T17:49:04.317Z,98031.38
2022-12-22T17:51:33.243Z,98029.81
2022-12-22T17:54:02.621Z,98025.34
2022-12-22T17:56:33.165Z,98033.63
2022-12-22T17:59:02.537Z,98034.41
2022-12-22T18:01:41.907Z,98038.41
2022-12-22T18:04:10.850Z,98042.69
2022-12-22T18:06:43.406Z,98044.28
2022-12-22T18:09:27.739Z,98051.75
2022-12-22T18:11:56.502Z,98054.59
2022-12-22T18:14:25.746Z,98055.88
2022-12-22T18:16:56.144Z,98060.50
2022-12-22T18:19:24.836Z,98059.75
2022-12-22T18:21:53.678Z,98069.72
2022-12-22T18:24:22.380Z,98066.00
2022-12-22T18:26:51.379Z,98059.69
2022-12-22T18:29:22.663Z,98067.19
2022-12-22T18:31:51.796Z,98070.19
2022-12-22T18:34:22.360Z,98079.00
2022-12-22T18:36:51.619Z,98068.81
2022-12-22T18:39:21.631Z,98073.66
2022-12-22T18:41:54.229Z,98070.44
2022-12-22T18:44:23.209Z,98070.66
2022-12-22T18:46:52.125Z,98068.75
2022-12-22T18:49:23.074Z,98067.88
2022-12-22T18:51:52.819Z,98063.97
2022-12-22T18:54:32.659Z,98068.34
2022-12-22T18:57:01.838Z,98075.72
2022-12-22T18:59:32.735Z,98075.84
2022-12-22T19:02:15.802Z,98067.59
2022-12-22T19:04:47.902Z,98064.03
2022-12-22T19:07:20.032Z,98061.75
2022-12-22T19:09:50.014Z,98063.16
2022-12-22T19:12:23.278Z,98061.75
2022-12-22T19:14:59.647Z,98060.63
2022-12-22T19:17:29.780Z,98060.19
2022-12-22T19:20:00.419Z,98066.28
2022-12-22T19:22:29.193Z,98063.97
2022-12-22T19:24:59.070Z,98069.13
2022-12-22T19:27:29.835Z,98074.84
2022-12-22T19:30:04.686Z,98071.72
2022-12-22T19:32:43.344Z,98076.34
2022-12-22T19:35:18.993Z,98079.25
2022-12-22T19:37:48.620Z,98079.28
2022-12-22T19:40:20.222Z,98079.53
2022-12-22T19:42:53.102Z,98073.66
2022-12-22T19:45:27.266Z,98069.69
2022-12-22T19:47:58.379Z,98068.66
2022-12-22T19:50:31.164Z,98069.97
2022-12-22T19:53:01.998Z,98056.09
2022-12-22T19:55:36.311Z,98056.09
2022-12-22T19:58:06.210Z,98053.44
2022-12-22T20:00:35.099Z,98059.72
2022-12-22T20:03:04.216Z,98064.22
2022-12-22T20:05:34.763Z,98070.69
2022-12-22T20:08:03.912Z,98068.41
2022-12-22T20:10:40.985Z,98062.59
2022-12-22T20:13:17.847Z,98066.97
2022-12-22T20:15:47.259Z,98067.47
2022-12-22T20:18:20.322Z,98068.50
2022-12-22T20:21:01.534Z,98057.97
2022-12-22T20:23:35.020Z,98061.75
2022-12-22T20:26:07.094Z,98068.38
2022-12-22T20:28:38.422Z,98071.47
2022-12-22T20:31:09.557Z,98064.63
2022-12-22T20:33:38.653Z,98072.06
2022-12-22T20:36:21.289Z,98066.72
2022-12-22T20:38:53.575Z,98067.53
2022-12-22T20:41:23.318Z,98056.66
2022-12-22T20:43:52.473Z,98060.91
2022-12-22T20:46:25.882Z,98055.59
2022-12-22T20:48:58.126Z,98051.06
2022-12-22T20:51:32.720Z,98046.56
2022-12-22T20:54:02.004Z,98056.41
2022-12-22T20:56:35.011Z,98052.38
2022-12-22T20:59:15.290Z,98057.22
2022-12-22T21:01:44.273Z,98063.03
2022-12-22T21:04:14.243Z,98064.28
2022-12-22T21:06:51.746Z,98062.34
2022-12-22T21:09:21.615Z,98058.41
2022-12-22T21:11:51.093Z,98056.13
2022-12-22T21:14:19.961Z,98059.00
2022-12-22T21:16:50.041Z,98067.59
2022-12-22T21:19:20.612Z,98054.75
2022-12-22T21:21:50.812Z,98055.34
2022-12-22T21:24:19.813Z,98061.47
2022-12-22T21:26:54.570Z,98051.75
2022-12-22T21:29:27.866Z,98046.69
2022-12-22T21:31:57.735Z,98054.88
2022-12-22T21:34:26.694Z,98053.25
2022-12-22T21:37:02.975Z,98052.94
2022-12-22T21:39:43.113Z,98053.75
2022-12-22T21:42:17.213Z,98047.94
2022-12-22T21:44:46.340Z,98046.91
2022-12-22T21:47:18.871Z,98045.63
2022-12-22T21:49:47.927Z,98041.94
2022-12-22T21:52:18.062Z,98042.97
2022-12-22T21:54:47.927Z,98038.91
2022-12-22T21:57:17.780Z,98037.09
2022-12-22T21:59:49.772Z,98030.34
2022-12-22T22:02:19.770Z,98024.34
2022-12-22T22:04:54.597Z,98014.97
2022-12-22T22:07:25.287Z,98012.53
2022-12-22T22:09:54.264Z,98017.16
2022-12-22T22:12:37.004Z,98002.44
2022-12-22T22:15:08.019Z,98010.09
2022-12-22T22:17:36.795Z,98008.81
2022-12-22T22:20:08.561Z,98008.69
2022-12-22T22:22:38.715Z,98008.56
2022-12-22T22:25:09.504Z,98000.59
2022-12-22T22:27:41.775Z,98003.34
2022-12-22T22:30:18.399Z,97999.91
2022-12-22T22:32:48.062Z,97996.66
2022-12-22T22:35:18.580Z,97983.00
2022-12-22T22:37:51.782Z,97976.31
2022-12-22T22:40:23.885Z,97974.22
2022-12-22T22:42:52.741Z,97966.59
2022-12-22T22:45:24.137Z,97966.94
2022-12-22T22:47:53.917Z,97958.50
2022-12-22T22:50:24.361Z,97963.25
2022-12-22T22:52:54.488Z,97955.47
2022-12-22T22:55:23.206Z,97945.88
2022-12-22T22:57:51.987Z,97941.16
2022-12-22T23:00:21.954Z,97930.03
2022-12-22T23:02:50.892Z,97938.72
2022-12-22T23:05:23.150Z,97934.22
2022-12-22T23:07:53.507Z,97928.69
2022-12-22T23:10:22.220Z,97925.91
2022-12-22T23:12:50.886Z,97930.66
2022-12-22T23:15:19.791Z,97923.63
2022-12-22T23:17:48.490Z,97926.38
2022-12-22T23:20:17.586Z,97916.06
2022-12-22T23:22:46.442Z,97914.13
2022-12-22T23:25:17.588Z,97911.59
2022-12-22T23:27:46.343Z,97917.50
2022-12-22T23:30:16.189Z,97907.44
2022-12-22T23:32:44.962Z,97914.81
2022-12-22T23:35:13.629Z,97922.13
2022-12-22T23:37:42.348Z,97925.16
2022-12-22T23:40:42.074Z,97915.75
2022-12-22T23:43:02.585Z,97923.41
2022-12-22T23:45:32.532Z,97916.34
2022-12-22T23:48:01.928Z,97909.72
2022-12-22T23:50:33.081Z,97908.56
2022-12-22T23:53:01.970Z,97901.28
2022-12-22T23:55:32.037Z,97897.03
2022-12-22T23:58:02.147Z,97888.09
